KPRO/PRO METAR and TAF weather

Enter ICAO airport designator
Station Type Date Time Source
KPRO METAR 2019/10/23 20:55 UTC NOAA

KPRO 232055Z AUTO 01012G17KT 10SM OVC050 07/04 A2989 RMK AO2 60010 T00670042


Station Type Date Time Source
KPRO Decoded METAR 2019/10/23 20:55 UTC NOAA

Station name not available
Oct 23, 2019 - 04:55 PM EDT / 2019.10.23 2055 UTC
Wind: from the N (010 degrees) at 14 MPH (12 KT) gusting to 20 MPH (17 KT):0
Visibility: 10 mile(s):0
Sky conditions: overcast
Temperature: 44.1 F (6.7 C)
Dew Point: 39.6 F (4.2 C)
Relative Humidity: 84%
Pressure (altimeter): 29.89 in. Hg (1012 hPa)
ob: KPRO 232055Z AUTO 01012G17KT 10SM OVC050 07/04 A2989 RMK AO2 60010 T00670042
cycle: 21

Station Type Date Time Source
KPRO TAF UTC NOAA

Error!

Example: see airport list